createdAt,value
2022-10-19T00:01:32.402Z,61.44
2022-10-19T00:04:22.736Z,61.41
2022-10-19T00:07:21.905Z,61.83
2022-10-19T00:10:15.336Z,61.75
2022-10-19T00:12:58.596Z,61.79
2022-10-19T00:15:43.417Z,61.95
2022-10-19T00:18:28.044Z,61.76
2022-10-19T00:21:11.389Z,62.81
2022-10-19T00:23:49.884Z,62.70
2022-10-19T00:26:31.469Z,62.14
2022-10-19T00:29:08.301Z,62.42
2022-10-19T00:31:59.850Z,62.53
2022-10-19T00:34:44.631Z,62.67
2022-10-19T00:37:27.387Z,62.52
2022-10-19T00:40:13.305Z,63.35
2022-10-19T00:42:58.285Z,62.80
2022-10-19T00:45:41.093Z,62.43
2022-10-19T00:48:33.580Z,62.74
2022-10-19T00:51:16.301Z,62.84
2022-10-19T00:53:56.467Z,62.87
2022-10-19T00:56:42.063Z,62.95
2022-10-19T01:02:32.529Z,62.66
2022-10-19T01:05:03.466Z,62.54
2022-10-19T01:07:31.916Z,62.60
2022-10-19T01:10:04.080Z,63.10
2022-10-19T01:12:38.376Z,62.87
2022-10-19T01:15:23.437Z,63.01
2022-10-19T01:18:01.659Z,62.67
2022-10-19T01:21:19.468Z,62.88
2022-10-19T01:24:00.628Z,62.71
2022-10-19T01:26:54.740Z,63.03
2022-10-19T01:29:36.491Z,63.42
2022-10-19T01:32:10.659Z,62.75
2022-10-19T01:35:03.809Z,63.33
2022-10-19T01:37:57.479Z,63.55
2022-10-19T01:40:49.517Z,63.14
2022-10-19T01:43:23.418Z,63.53
2022-10-19T01:46:20.255Z,63.63
2022-10-19T01:49:06.981Z,63.85
2022-10-19T01:51:39.618Z,63.40
2022-10-19T01:54:13.214Z,62.67
2022-10-19T01:56:44.706Z,62.72
2022-10-19T02:02:21.405Z,62.78
2022-10-19T02:05:03.283Z,62.77
2022-10-19T02:07:50.116Z,63.21
2022-10-19T02:10:36.681Z,63.63
2022-10-19T02:13:31.101Z,63.49
2022-10-19T02:16:20.770Z,62.84
2022-10-19T02:19:06.586Z,63.14
2022-10-19T02:22:22.467Z,63.41
2022-10-19T02:25:04.314Z,63.18
2022-10-19T02:27:44.291Z,63.60
2022-10-19T02:30:36.503Z,63.00
2022-10-19T02:33:19.889Z,63.00
2022-10-19T02:36:16.221Z,63.02
2022-10-19T02:39:03.337Z,63.03
2022-10-19T02:42:22.024Z,63.12
2022-10-19T02:45:08.964Z,63.06
2022-10-19T02:48:01.731Z,62.93
2022-10-19T02:50:54.166Z,63.36
2022-10-19T02:53:42.500Z,63.55
2022-10-19T02:56:27.057Z,64.00
2022-10-19T03:02:22.406Z,63.61
2022-10-19T03:04:52.682Z,63.39
2022-10-19T03:07:24.266Z,63.69
2022-10-19T03:09:54.947Z,63.59
2022-10-19T03:12:24.337Z,63.45
2022-10-19T03:14:53.993Z,63.34
2022-10-19T03:17:24.001Z,63.01
2022-10-19T03:19:52.630Z,63.24
2022-10-19T03:22:20.708Z,63.02
2022-10-19T03:24:49.374Z,63.53
2022-10-19T03:27:17.277Z,63.29
2022-10-19T03:29:45.078Z,63.39
2022-10-19T03:32:12.909Z,63.22
2022-10-19T03:34:40.678Z,63.21
2022-10-19T03:37:09.218Z,63.79
2022-10-19T03:39:36.875Z,63.48
2022-10-19T03:42:04.546Z,63.14
2022-10-19T03:44:34.222Z,63.24
2022-10-19T03:47:05.274Z,62.96
2022-10-19T03:49:36.845Z,63.05
2022-10-19T03:52:08.222Z,63.37
2022-10-19T03:54:36.154Z,63.38
2022-10-19T03:57:09.003Z,63.31
2022-10-19T03:59:37.550Z,63.24
2022-10-19T04:02:18.940Z,63.61
2022-10-19T04:04:46.748Z,63.11
2022-10-19T04:07:15.436Z,62.77
2022-10-19T04:09:45.910Z,63.06
2022-10-19T04:12:17.467Z,63.27
2022-10-19T04:14:57.356Z,63.18
2022-10-19T04:17:31.128Z,63.26
2022-10-19T04:20:00.613Z,62.93
2022-10-19T04:22:32.428Z,62.85
2022-10-19T04:25:13.332Z,63.00
2022-10-19T04:27:44.371Z,63.28
2022-10-19T04:30:13.291Z,62.71
2022-10-19T04:32:41.261Z,63.52
2022-10-19T04:35:13.934Z,63.10
2022-10-19T04:37:42.109Z,63.03
2022-10-19T04:40:14.964Z,62.75
2022-10-19T04:42:43.069Z,62.89
2022-10-19T04:45:11.178Z,63.12
2022-10-19T04:47:41.354Z,62.91
2022-10-19T04:50:10.096Z,63.18
2022-10-19T04:52:38.351Z,63.14
2022-10-19T04:55:06.802Z,63.16
2022-10-19T04:57:36.930Z,63.17
2022-10-19T05:00:06.223Z,63.34
2022-10-19T05:02:34.461Z,63.19
2022-10-19T05:05:04.047Z,63.57
2022-10-19T05:07:31.882Z,63.48
2022-10-19T05:10:00.143Z,63.98
2022-10-19T05:12:46.036Z,64.58
2022-10-19T05:15:22.707Z,64.09
2022-10-19T05:17:54.105Z,64.06
2022-10-19T05:20:22.892Z,63.81
2022-10-19T05:22:50.908Z,64.08
2022-10-19T05:25:18.938Z,63.99
2022-10-19T05:27:52.398Z,63.90
2022-10-19T05:30:22.495Z,63.72
2022-10-19T05:32:50.370Z,64.30
2022-10-19T05:35:21.503Z,63.82
2022-10-19T05:38:00.215Z,64.83
2022-10-19T05:40:28.448Z,64.72
2022-10-19T05:42:55.852Z,64.43
2022-10-19T05:45:23.473Z,63.99
2022-10-19T05:47:51.058Z,64.24
2022-10-19T05:50:21.801Z,64.33
2022-10-19T05:52:49.477Z,64.52
2022-10-19T05:55:17.067Z,64.39
2022-10-19T05:57:45.367Z,64.10
2022-10-19T06:00:13.579Z,64.52
2022-10-19T06:02:42.566Z,64.47
2022-10-19T06:05:10.449Z,64.52
2022-10-19T06:07:38.722Z,64.02
2022-10-19T06:10:08.440Z,64.00
2022-10-19T06:12:38.407Z,63.80
2022-10-19T06:15:06.819Z,63.89
2022-10-19T06:17:35.066Z,63.85
2022-10-19T06:20:03.168Z,63.61
2022-10-19T06:22:31.326Z,63.64
2022-10-19T06:25:01.811Z,63.41
2022-10-19T06:27:30.187Z,63.78
2022-10-19T06:29:58.835Z,63.48
2022-10-19T06:32:29.403Z,63.27
2022-10-19T06:34:57.226Z,63.56
2022-10-19T06:37:24.998Z,63.42
2022-10-19T06:39:54.182Z,63.16
2022-10-19T06:42:22.171Z,63.15
2022-10-19T06:44:55.404Z,63.30
2022-10-19T06:47:23.710Z,62.55
2022-10-19T06:50:00.100Z,62.69
2022-10-19T06:52:28.373Z,62.71
2022-10-19T06:55:06.274Z,62.82
2022-10-19T06:57:39.570Z,62.68
2022-10-19T07:00:21.427Z,62.38
2022-10-19T07:02:54.844Z,62.37
2022-10-19T07:05:25.942Z,62.63
2022-10-19T07:07:54.677Z,62.74
2022-10-19T07:10:38.324Z,62.16
2022-10-19T07:13:12.236Z,62.16
2022-10-19T07:15:42.859Z,61.69
2022-10-19T07:18:15.234Z,62.15
2022-10-19T07:20:44.389Z,62.21
2022-10-19T07:23:13.784Z,61.39
2022-10-19T07:25:48.228Z,61.55
2022-10-19T07:28:16.996Z,60.90
2022-10-19T07:30:55.666Z,60.85
2022-10-19T07:36:29.328Z,60.88
2022-10-19T07:39:13.334Z,60.67
2022-10-19T07:41:46.261Z,60.70
2022-10-19T07:44:26.720Z,60.09
2022-10-19T07:47:01.707Z,59.69
2022-10-19T07:49:34.018Z,59.52
2022-10-19T07:52:08.818Z,59.69
2022-10-19T07:54:37.127Z,59.45
2022-10-19T07:57:05.827Z,59.60
2022-10-19T07:59:37.681Z,59.44
2022-10-19T08:02:10.218Z,59.47
2022-10-19T08:04:59.508Z,59.12
2022-10-19T08:07:38.811Z,59.34
2022-10-19T08:10:10.827Z,58.32
2022-10-19T08:12:47.546Z,58.15
2022-10-19T08:15:16.035Z,58.54
2022-10-19T08:17:47.429Z,58.46
2022-10-19T08:20:20.246Z,58.31
2022-10-19T08:22:56.493Z,57.96
2022-10-19T08:25:28.892Z,58.54
2022-10-19T08:27:59.071Z,58.61
2022-10-19T08:30:27.629Z,58.58
2022-10-19T08:33:00.094Z,57.99
2022-10-19T08:35:36.458Z,58.15
2022-10-19T08:38:12.664Z,58.14
2022-10-19T08:40:41.547Z,57.86
2022-10-19T08:43:37.685Z,57.21
2022-10-19T08:46:52.798Z,57.28
2022-10-19T08:49:26.505Z,57.06
2022-10-19T08:52:34.638Z,56.68
2022-10-19T08:55:19.669Z,56.29
2022-10-19T08:58:12.615Z,56.40
2022-10-19T09:00:59.166Z,55.68
2022-10-19T09:03:56.535Z,55.56
2022-10-19T09:06:36.033Z,55.81
2022-10-19T09:09:16.140Z,55.65
2022-10-19T09:12:05.397Z,55.54
2022-10-19T09:14:51.158Z,55.27
2022-10-19T09:17:22.275Z,55.75
2022-10-19T09:19:56.573Z,55.40
2022-10-19T09:22:32.190Z,55.03
2022-10-19T09:25:18.644Z,55.14
2022-10-19T09:27:51.213Z,54.86
2022-10-19T09:30:22.963Z,54.50
2022-10-19T09:33:03.956Z,53.54
2022-10-19T09:35:51.795Z,53.41
2022-10-19T09:38:30.100Z,53.47
2022-10-19T09:41:15.348Z,52.55
2022-10-19T09:44:01.063Z,52.61
2022-10-19T09:46:53.096Z,52.51
2022-10-19T09:49:40.815Z,51.21
2022-10-19T09:52:38.496Z,51.05
2022-10-19T09:55:31.553Z,50.57
2022-10-19T09:58:22.220Z,50.74
2022-10-19T10:01:04.531Z,50.75
2022-10-19T10:03:51.123Z,50.41
2022-10-19T10:06:33.329Z,50.15
2022-10-19T10:09:06.982Z,49.83
2022-10-19T10:11:38.902Z,49.44
2022-10-19T10:14:23.884Z,48.59
2022-10-19T10:17:03.407Z,48.22
2022-10-19T10:19:34.557Z,47.58
2022-10-19T10:22:07.567Z,47.03
2022-10-19T10:24:38.248Z,48.02
2022-10-19T10:27:07.293Z,48.13
2022-10-19T10:29:38.315Z,47.37
2022-10-19T10:32:19.201Z,47.36
2022-10-19T10:35:03.356Z,47.44
2022-10-19T10:37:41.391Z,47.54
2022-10-19T10:40:27.230Z,47.99
2022-10-19T10:42:58.596Z,48.78
2022-10-19T10:45:44.087Z,47.52
2022-10-19T10:48:28.481Z,48.22
2022-10-19T10:50:58.511Z,47.82
2022-10-19T10:53:39.059Z,47.06
2022-10-19T10:56:32.632Z,46.11
2022-10-19T10:59:17.496Z,45.85
2022-10-19T11:02:15.428Z,46.93
2022-10-19T11:04:52.616Z,47.03
2022-10-19T11:07:27.830Z,46.87
2022-10-19T11:10:22.692Z,46.38
2022-10-19T11:13:06.295Z,45.17
2022-10-19T11:15:55.801Z,45.78
2022-10-19T11:18:55.712Z,46.50
2022-10-19T11:21:45.357Z,47.46
2022-10-19T11:24:31.764Z,47.17
2022-10-19T11:27:21.139Z,47.17
2022-10-19T11:30:01.014Z,47.75
2022-10-19T11:33:08.919Z,47.55
2022-10-19T11:35:56.033Z,47.56
2022-10-19T11:38:46.629Z,47.32
2022-10-19T11:41:40.712Z,48.26
2022-10-19T11:44:18.408Z,47.44
2022-10-19T11:47:01.621Z,48.00
2022-10-19T11:49:40.057Z,47.62
2022-10-19T11:52:57.998Z,46.77
2022-10-19T11:55:43.730Z,47.50
2022-10-19T11:58:32.366Z,48.02
2022-10-19T12:01:24.260Z,48.51
2022-10-19T12:04:05.065Z,49.27
2022-10-19T12:06:43.184Z,49.32
2022-10-19T12:09:20.369Z,50.07
2022-10-19T12:11:59.452Z,49.21
2022-10-19T12:14:32.820Z,49.18
2022-10-19T12:19:48.805Z,48.29
2022-10-19T12:22:23.257Z,48.32
2022-10-19T12:24:56.029Z,48.07
2022-10-19T12:27:53.671Z,48.76
2022-10-19T12:30:24.656Z,48.75
2022-10-19T12:33:24.631Z,49.89
2022-10-19T12:36:31.786Z,49.56
2022-10-19T12:39:06.364Z,50.64
2022-10-19T12:41:36.148Z,51.33
2022-10-19T12:44:21.255Z,52.50
2022-10-19T12:46:56.509Z,52.25
2022-10-19T12:49:34.359Z,51.71
2022-10-19T12:52:05.780Z,53.25
2022-10-19T12:54:47.138Z,54.33
2022-10-19T12:57:28.758Z,54.92
2022-10-19T13:00:29.654Z,54.57
2022-10-19T13:06:30.525Z,54.16
2022-10-19T13:10:09.548Z,53.67
2022-10-19T13:12:47.308Z,53.25
2022-10-19T13:15:47.811Z,53.92
2022-10-19T13:18:41.416Z,52.87
2022-10-19T13:22:07.744Z,53.37
2022-10-19T13:25:26.105Z,51.24
2022-10-19T13:28:40.156Z,52.93
2022-10-19T13:31:39.061Z,53.35
2022-10-19T13:34:17.083Z,53.46
2022-10-19T13:37:06.029Z,53.62
2022-10-19T13:39:46.746Z,54.25
2022-10-19T13:42:28.936Z,54.84
2022-10-19T13:45:00.283Z,54.39
2022-10-19T13:47:42.476Z,54.48
2022-10-19T13:50:48.898Z,54.91
2022-10-19T13:53:56.872Z,54.66
2022-10-19T13:56:59.502Z,54.18
2022-10-19T13:59:54.596Z,53.07
2022-10-19T14:03:00.682Z,51.92
2022-10-19T14:05:34.598Z,52.18
2022-10-19T14:09:12.600Z,50.50
2022-10-19T14:11:58.518Z,50.66
2022-10-19T14:14:30.698Z,49.90
2022-10-19T14:17:04.623Z,50.21
2022-10-19T14:19:58.408Z,49.89
2022-10-19T14:22:39.270Z,50.88
2022-10-19T14:25:19.539Z,50.39
2022-10-19T14:28:01.730Z,50.78
2022-10-19T14:30:32.914Z,51.17
2022-10-19T14:33:05.027Z,51.73
2022-10-19T14:35:36.463Z,51.68
2022-10-19T14:38:09.277Z,51.50
2022-10-19T14:40:47.208Z,50.88
2022-10-19T14:43:29.044Z,51.59
2022-10-19T14:46:17.822Z,51.79
2022-10-19T14:48:50.412Z,51.86
2022-10-19T14:51:51.940Z,53.99
2022-10-19T14:54:33.509Z,53.41
2022-10-19T14:57:29.166Z,53.80
2022-10-19T15:00:09.737Z,54.29
2022-10-19T15:02:45.271Z,54.26
2022-10-19T15:05:23.621Z,54.33
2022-10-19T15:07:55.104Z,54.07
2022-10-19T15:10:52.378Z,53.93
2022-10-19T15:13:34.873Z,54.79
2022-10-19T15:16:03.086Z,54.97
2022-10-19T15:18:56.121Z,55.26
2022-10-19T15:21:27.272Z,55.23
2022-10-19T15:24:08.100Z,54.93
2022-10-19T15:26:37.127Z,55.91
2022-10-19T15:29:11.145Z,55.51
2022-10-19T15:31:40.923Z,56.04
2022-10-19T15:34:25.598Z,56.36
2022-10-19T15:37:02.798Z,56.72
2022-10-19T15:39:39.741Z,56.11
2022-10-19T15:42:38.112Z,56.15
2022-10-19T15:45:48.847Z,54.83
2022-10-19T15:48:24.221Z,55.30
2022-10-19T15:50:53.593Z,54.75
2022-10-19T15:53:28.573Z,55.07
2022-10-19T15:55:59.606Z,56.65
2022-10-19T15:58:31.558Z,57.45
2022-10-19T16:01:00.203Z,56.72
2022-10-19T16:03:28.175Z,56.62
2022-10-19T16:05:56.501Z,56.20
2022-10-19T16:08:51.520Z,56.98
2022-10-19T16:11:23.690Z,56.77
2022-10-19T16:13:55.458Z,56.24
2022-10-19T16:16:32.915Z,56.13
2022-10-19T16:19:08.594Z,55.87
2022-10-19T16:22:04.619Z,55.91
2022-10-19T16:24:32.574Z,56.07
2022-10-19T16:27:00.407Z,55.65
2022-10-19T16:29:30.884Z,55.15
2022-10-19T16:31:58.935Z,55.74
2022-10-19T16:34:29.744Z,55.66
2022-10-19T16:37:04.137Z,55.86
2022-10-19T16:39:35.140Z,56.43
2022-10-19T16:42:04.689Z,57.88
2022-10-19T16:44:34.550Z,56.30
2022-10-19T16:47:02.509Z,56.32
2022-10-19T16:49:31.814Z,56.32
2022-10-19T16:52:03.350Z,56.66
2022-10-19T16:54:35.802Z,58.21
2022-10-19T16:57:09.584Z,59.16
2022-10-19T16:59:43.289Z,58.47
2022-10-19T17:02:12.765Z,60.20
2022-10-19T17:04:43.086Z,60.51
2022-10-19T17:07:14.990Z,59.59
2022-10-19T17:09:43.746Z,59.99
2022-10-19T17:12:12.850Z,58.98
2022-10-19T17:14:47.510Z,59.73
2022-10-19T17:17:19.572Z,60.13
2022-10-19T17:19:49.358Z,59.82
2022-10-19T17:22:17.967Z,59.47
2022-10-19T17:24:55.710Z,60.27
2022-10-19T17:29:56.361Z,59.45
2022-10-19T17:32:26.176Z,59.80
2022-10-19T17:34:56.365Z,60.43
2022-10-19T17:37:28.045Z,61.66
2022-10-19T17:40:03.806Z,59.99
2022-10-19T17:42:35.570Z,59.80
2022-10-19T17:45:07.531Z,59.63
2022-10-19T17:47:44.201Z,60.22
2022-10-19T17:50:17.490Z,60.36
2022-10-19T17:52:48.284Z,59.93
2022-10-19T17:55:17.968Z,60.61
2022-10-19T17:57:46.511Z,61.04
2022-10-19T18:00:18.455Z,59.91
2022-10-19T18:02:52.588Z,59.13
2022-10-19T18:05:24.852Z,61.39
2022-10-19T18:07:59.168Z,60.22
2022-10-19T18:10:30.525Z,61.01
2022-10-19T18:13:01.362Z,59.45
2022-10-19T18:15:44.652Z,59.16
2022-10-19T18:18:22.395Z,59.46
2022-10-19T18:20:54.618Z,59.63
2022-10-19T18:23:23.124Z,60.55
2022-10-19T18:25:54.406Z,60.40
2022-10-19T18:28:29.091Z,60.20
2022-10-19T18:31:20.713Z,59.70
2022-10-19T18:36:42.836Z,58.45
2022-10-19T18:39:13.816Z,58.93
2022-10-19T18:41:45.782Z,58.45
2022-10-19T18:44:22.152Z,58.46
2022-10-19T18:47:15.194Z,59.25
2022-10-19T18:49:44.720Z,58.84
2022-10-19T18:52:40.178Z,59.64
2022-10-19T18:55:22.491Z,59.54
2022-10-19T18:58:10.123Z,59.04
2022-10-19T19:00:45.822Z,59.59
2022-10-19T19:03:37.382Z,59.23
2022-10-19T19:06:19.602Z,59.09
2022-10-19T19:08:48.812Z,58.51
2022-10-19T19:11:33.056Z,59.75
2022-10-19T19:14:26.701Z,59.35
2022-10-19T19:16:57.858Z,58.71
2022-10-19T19:19:31.314Z,58.85
2022-10-19T19:22:07.938Z,58.90
2022-10-19T19:24:48.704Z,59.46
2022-10-19T19:27:30.768Z,59.07
2022-10-19T19:30:07.899Z,60.40
2022-10-19T19:32:40.719Z,59.93
2022-10-19T19:35:13.653Z,59.53
2022-10-19T19:37:46.576Z,59.70
2022-10-19T19:40:15.744Z,59.44
2022-10-19T19:42:54.765Z,61.05
2022-10-19T19:45:35.479Z,59.76
2022-10-19T19:48:23.917Z,59.91
2022-10-19T19:51:08.813Z,60.52
2022-10-19T19:53:42.841Z,59.51
2022-10-19T19:56:26.391Z,61.24
2022-10-19T19:59:40.018Z,60.84
2022-10-19T20:02:23.472Z,60.90
2022-10-19T20:05:05.356Z,61.17
2022-10-19T20:07:38.861Z,61.63
2022-10-19T20:10:51.993Z,60.72
2022-10-19T20:16:47.263Z,60.54
2022-10-19T20:19:31.561Z,61.56
2022-10-19T20:22:05.626Z,61.67
2022-10-19T20:24:46.954Z,61.28
2022-10-19T20:27:15.956Z,62.10
2022-10-19T20:29:48.626Z,60.53
2022-10-19T20:32:22.585Z,60.97
2022-10-19T20:34:53.903Z,60.63
2022-10-19T20:40:23.165Z,59.63
2022-10-19T20:42:59.772Z,59.48
2022-10-19T20:45:32.650Z,59.27
2022-10-19T20:48:19.456Z,58.71
2022-10-19T20:50:49.628Z,58.95
2022-10-19T20:53:24.771Z,58.83
2022-10-19T20:55:56.886Z,59.21
2022-10-19T20:58:29.063Z,58.39
2022-10-19T21:01:11.698Z,58.91
2022-10-19T21:04:06.121Z,58.31
2022-10-19T21:06:44.074Z,58.36
2022-10-19T21:09:18.842Z,58.41
2022-10-19T21:11:49.003Z,58.60
2022-10-19T21:14:32.333Z,58.68
2022-10-19T21:17:02.028Z,58.53
2022-10-19T21:19:36.472Z,58.56
2022-10-19T21:22:09.812Z,58.64
2022-10-19T21:24:38.865Z,58.59
2022-10-19T21:27:15.122Z,58.93
2022-10-19T21:29:46.427Z,58.85
2022-10-19T21:32:32.867Z,58.74
2022-10-19T21:35:12.819Z,58.62
2022-10-19T21:37:51.908Z,58.70
2022-10-19T21:40:37.019Z,58.64
2022-10-19T21:43:20.343Z,58.86
2022-10-19T21:46:18.747Z,58.74
2022-10-19T21:49:08.419Z,59.12
2022-10-19T21:51:55.747Z,59.17
2022-10-19T21:54:36.674Z,58.93
2022-10-19T21:57:05.606Z,59.34
2022-10-19T21:59:42.867Z,58.96
2022-10-19T22:02:14.468Z,59.00
2022-10-19T22:04:42.559Z,59.17
2022-10-19T22:07:13.605Z,59.35
2022-10-19T22:09:47.344Z,58.79
2022-10-19T22:12:17.088Z,58.96
2022-10-19T22:14:46.043Z,59.08
2022-10-19T22:17:29.340Z,59.34
2022-10-19T22:19:58.168Z,59.04
2022-10-19T22:22:27.361Z,59.51
2022-10-19T22:24:55.458Z,59.24
2022-10-19T22:27:26.224Z,59.43
2022-10-19T22:29:58.217Z,59.30
2022-10-19T22:32:27.091Z,59.35
2022-10-19T22:34:55.300Z,59.84
2022-10-19T22:37:26.754Z,59.43
2022-10-19T22:39:54.750Z,59.44
2022-10-19T22:43:02.411Z,60.12
2022-10-19T22:45:51.547Z,59.59
2022-10-19T22:48:24.619Z,60.12
2022-10-19T22:50:56.037Z,60.23
2022-10-19T22:53:25.370Z,59.52
2022-10-19T22:55:53.368Z,59.76
2022-10-19T22:58:21.415Z,59.91
2022-10-19T23:01:01.192Z,60.53
2022-10-19T23:03:29.528Z,59.88
2022-10-19T23:06:00.302Z,60.16
2022-10-19T23:08:28.695Z,60.32
2022-10-19T23:10:57.043Z,60.32
2022-10-19T23:13:25.218Z,60.16
2022-10-19T23:15:53.634Z,60.60
2022-10-19T23:18:22.269Z,60.03
2022-10-19T23:20:57.934Z,60.30
2022-10-19T23:23:26.506Z,60.09
2022-10-19T23:26:02.802Z,60.63
2022-10-19T23:28:32.648Z,60.85
2022-10-19T23:31:05.665Z,60.98
2022-10-19T23:33:34.914Z,60.72
2022-10-19T23:36:16.109Z,60.32
2022-10-19T23:38:46.307Z,60.64
2022-10-19T23:41:16.445Z,60.34
2022-10-19T23:43:45.165Z,60.22
2022-10-19T23:46:15.742Z,59.85
2022-10-19T23:48:47.661Z,60.02
2022-10-19T23:51:21.401Z,60.52
2022-10-19T23:53:55.785Z,60.24
2022-10-19T23:56:30.204Z,60.20
2022-10-19T23:59:10.395Z,60.00
